Magali — ZDQM4 — position and weather

sailwx.info

Track history (hours):
 
Tides and Currents Weather Stations Pressure Air Temp Water Temp Dewpoint Dewpoint Depression Visibility Wind Speed Wind Dir Waves Ship Positions

Magali

Last reported at 2017-Oct-12 14:26 UTC. Time now 2017-Dec-13 19:03 UTC.
Position N 37°03' W 008°15'.
Warning: this ship's position is months out of date.

Type: Sailing vessel. MMSI: 236112374.

Date/timePositionNaut miles runAvg speedWind from/ knotsBaromVisibWave heightAir tempDewpointWater temp
2017-Oct-12 14:26N 37°03' W 008°15'3 6.0
2017-Oct-12 13:58N 37°04' W 008°19'3 6.0
2017-Oct-12 13:29N 37°04' W 008°22'4 5.6
2017-Oct-12 12:42N 37°05' W 008°28'2 5.7
2017-Oct-12 12:25N 37°05' W 008°30'3 5.7
2017-Oct-12 11:55N 37°05' W 008°33'3 5.6
2017-Oct-12 11:25N 37°05' W 008°37'3 5.3
2017-Oct-12 10:53N 37°06' W 008°40'1 1.6
2017-Oct-12 10:29N 37°07' W 008°41'0 0.0
2017-Oct-10 17:39N 37°07' W 008°41'0 0.4
2017-Oct-10 16:59N 37°06' W 008°40'3 5.3
2017-Oct-10 16:30N 37°04' W 008°40'4 7.0
2017-Oct-10 15:56N 37°02' W 008°45'3 6.9
2017-Oct-10 15:29N 37°01' W 008°48'4 6.7
2017-Oct-10 14:49N 36°60' W 008°54'16 5.9
2017-Oct-10 12:06N 37°15' W 008°59'3 7.5
2017-Oct-10 11:43N 37°18' W 008°59'2 7.5
2017-Oct-10 11:28N 37°20' W 008°58'3 7.5
2017-Oct-10 11:00N 37°24' W 008°58'4 7.3
2017-Oct-10 10:30N 37°27' W 008°57'4 7.3
2017-Oct-10 10:00N 37°31' W 008°57'4 7.6
2017-Oct-10 09:31N 37°34' W 008°56'4 7.3
2017-Oct-10 09:00N 37°38' W 008°55'4 6.9
2017-Oct-10 08:28N 37°42' W 008°55'5 7.1
2017-Oct-10 07:43N 37°47' W 008°54'2 7.2
2017-Oct-10 07:27N 37°49' W 008°54'3 6.7
2017-Oct-10 06:59N 37°52' W 008°54'3 6.0
2017-Oct-10 06:30N 37°55' W 008°54'2 4.6
2017-Oct-10 06:00N 37°57' W 008°52'0 0.5
2017-Oct-10 05:30N 37°57' W 008°52'0 0.0
2017-Oct-10 05:00N 37°57' W 008°52'0 0.0
2017-Oct-09 20:39N 37°57' W 008°52'0 0.0
2017-Oct-09 20:30N 37°57' W 008°52'0 0.0
2017-Oct-09 20:00N 37°57' W 008°52'0 0.0
2017-Oct-09 19:30N 37°57' W 008°52'0 0.0
2017-Oct-09 19:00N 37°57' W 008°52'0 0.0
2017-Oct-09 11:13N 37°57' W 008°52'0 0.0
2017-Oct-09 10:58N 37°57' W 008°52'0 0.0
2017-Oct-09 10:28N 37°57' W 008°52'0 0.0
2017-Oct-09 09:58N 37°57' W 008°52'0 0.0
2017-Oct-09 09:25N 37°57' W 008°52'0 0.0
2017-Oct-09 08:58N 37°57' W 008°52'0 0.0
2017-Oct-09 08:28N 37°57' W 008°52'0 0.0
2017-Oct-09 07:58N 37°57' W 008°52'0 0.0
2017-Oct-09 07:28N 37°57' W 008°52'0 0.0
2017-Oct-09 06:58N 37°57' W 008°52'0 0.0
2017-Oct-09 06:30N 37°57' W 008°52'0 0.0
2017-Oct-08 18:37N 37°57' W 008°52'0 0.0
2017-Oct-08 18:28N 37°57' W 008°52'0 0.0
2017-Oct-08 17:58N 37°57' W 008°52'0 0.0
2017-Oct-08 17:28N 37°57' W 008°52'0 0.0
2017-Oct-08 16:58N 37°57' W 008°52'0 0.0
2017-Oct-07 18:09N 37°57' W 008°52'0 0.0
2017-Oct-07 18:00N 37°57' W 008°52'0 0.0
2017-Oct-07 17:30N 37°57' W 008°52'0 0.0
2017-Oct-07 17:00N 37°57' W 008°52'0 0.0
2017-Oct-07 16:30N 37°57' W 008°52'0 0.0
2017-Oct-07 16:00N 37°57' W 008°52'0 0.0
2017-Oct-07 15:30N 37°57' W 008°52'0 0.0
2017-Oct-07 15:00N 37°57' W 008°52'0 0.0
2017-Oct-07 14:27N 37°57' W 008°52'0 0.0
2017-Oct-07 14:00N 37°57' W 008°52'0 0.0
2017-Oct-07 13:30N 37°57' W 008°52'0 0.0
2017-Oct-07 13:00N 37°57' W 008°52'0 0.0
2017-Oct-07 12:30N 37°57' W 008°52'0 0.0
2017-Oct-07 12:00N 37°57' W 008°52'0 0.0
2017-Oct-07 11:30N 37°57' W 008°52'0 0.0
2017-Oct-06 15:13N 37°57' W 008°52'0 0.0
2017-Oct-06 14:58N 37°57' W 008°52'0 0.6
2017-Oct-06 14:30N 37°57' W 008°52'2 3.9
2017-Oct-06 14:00N 37°57' W 008°55'3 6.4
2017-Oct-06 13:30N 37°60' W 008°57'3 6.5
2017-Oct-06 13:00N 38°03' W 008°59'3 6.7
2017-Oct-06 12:31N 38°06' W 009°01'4 7.2
2017-Oct-06 12:01N 38°09' W 009°04'3 6.7
2017-Oct-06 11:30N 38°12' W 009°06'3 6.8
2017-Oct-06 11:00N 38°14' W 009°08'3 5.9
2017-Oct-06 10:30N 38°17' W 009°10'3 6.6
2017-Oct-06 10:01N 38°20' W 009°12'3 6.6
2017-Oct-06 09:31N 38°22' W 009°14'3 6.3
2017-Oct-06 09:01N 38°25' W 009°16'3 6.2
2017-Oct-06 08:31N 38°28' W 009°17'3 6.3
2017-Oct-06 08:01N 38°31' W 009°18'3 6.7
2017-Oct-06 07:31N 38°35' W 009°19'3 6.8
2017-Oct-06 07:01N 38°38' W 009°21'3 6.1
2017-Oct-06 06:29N 38°40' W 009°24'2 3.2
2017-Oct-06 05:55N 38°42' W 009°25'0 0.0
2017-Oct-06 05:19N 38°42' W 009°25'0 0.0
2017-Oct-05 17:58N 38°42' W 009°25'0 0.0
2017-Oct-05 17:25N 38°42' W 009°25'0 0.0
2017-Oct-05 16:58N 38°42' W 009°25'0 0.2
2017-Oct-05 15:25N 38°42' W 009°25'0 0.0
2017-Oct-05 14:55N 38°42' W 009°25'0 0.0
2017-Oct-05 14:13N 38°42' W 009°25'0 0.0
2017-Oct-05 13:58N 38°42' W 009°25'0 0.0
2017-Oct-05 13:19N 38°42' W 009°25'0 0.0
2017-Oct-05 12:52N 38°42' W 009°25'0 0.0
2017-Oct-05 12:25N 38°42' W 009°25'0 0.0
2017-Oct-05 11:58N 38°42' W 009°25'0 0.0
2017-Oct-05 11:28N 38°42' W 009°25'0 0.0
2017-Oct-05 10:55N 38°42' W 009°25'  
Track history (hours):
 
Tides and Currents Weather Stations Pressure Air Temp Water Temp Dewpoint Dewpoint Depression Visibility Wind Speed Wind Dir Waves Ship Positions

Magali

Last reported at 2017-Oct-12 14:26 UTC. Time now 2017-Dec-13 19:03 UTC.
Position N 37°03' W 008°15'.
Warning: this ship's position is months out of date.

Type: Sailing vessel. MMSI: 236112374.

Date/timePositionNaut miles runAvg speedWind from/ knotsBaromVisibWave heightAir tempDewpointWater temp
2017-Oct-12 14:26N 37°03' W 008°15'3 6.0
2017-Oct-12 13:58N 37°04' W 008°19'3 6.0
2017-Oct-12 13:29N 37°04' W 008°22'4 5.6
2017-Oct-12 12:42N 37°05' W 008°28'2 5.7
2017-Oct-12 12:25N 37°05' W 008°30'3 5.7
2017-Oct-12 11:55N 37°05' W 008°33'3 5.6
2017-Oct-12 11:25N 37°05' W 008°37'3 5.3
2017-Oct-12 10:53N 37°06' W 008°40'1 1.6
2017-Oct-12 10:29N 37°07' W 008°41'0 0.0
2017-Oct-10 17:39N 37°07' W 008°41'0 0.4
2017-Oct-10 16:59N 37°06' W 008°40'3 5.3
2017-Oct-10 16:30N 37°04' W 008°40'4 7.0
2017-Oct-10 15:56N 37°02' W 008°45'3 6.9
2017-Oct-10 15:29N 37°01' W 008°48'4 6.7
2017-Oct-10 14:49N 36°60' W 008°54'16 5.9
2017-Oct-10 12:06N 37°15' W 008°59'3 7.5
2017-Oct-10 11:43N 37°18' W 008°59'2 7.5
2017-Oct-10 11:28N 37°20' W 008°58'3 7.5
2017-Oct-10 11:00N 37°24' W 008°58'4 7.3
2017-Oct-10 10:30N 37°27' W 008°57'4 7.3
2017-Oct-10 10:00N 37°31' W 008°57'4 7.6
2017-Oct-10 09:31N 37°34' W 008°56'4 7.3
2017-Oct-10 09:00N 37°38' W 008°55'4 6.9
2017-Oct-10 08:28N 37°42' W 008°55'5 7.1
2017-Oct-10 07:43N 37°47' W 008°54'2 7.2
2017-Oct-10 07:27N 37°49' W 008°54'3 6.7
2017-Oct-10 06:59N 37°52' W 008°54'3 6.0
2017-Oct-10 06:30N 37°55' W 008°54'2 4.6
2017-Oct-10 06:00N 37°57' W 008°52'0 0.5
2017-Oct-10 05:30N 37°57' W 008°52'0 0.0
2017-Oct-10 05:00N 37°57' W 008°52'0 0.0
2017-Oct-09 20:39N 37°57' W 008°52'0 0.0
2017-Oct-09 20:30N 37°57' W 008°52'0 0.0
2017-Oct-09 20:00N 37°57' W 008°52'0 0.0
2017-Oct-09 19:30N 37°57' W 008°52'0 0.0
2017-Oct-09 19:00N 37°57' W 008°52'0 0.0
2017-Oct-09 11:13N 37°57' W 008°52'0 0.0
2017-Oct-09 10:58N 37°57' W 008°52'0 0.0
2017-Oct-09 10:28N 37°57' W 008°52'0 0.0
2017-Oct-09 09:58N 37°57' W 008°52'0 0.0
2017-Oct-09 09:25N 37°57' W 008°52'0 0.0
2017-Oct-09 08:58N 37°57' W 008°52'0 0.0
2017-Oct-09 08:28N 37°57' W 008°52'0 0.0
2017-Oct-09 07:58N 37°57' W 008°52'0 0.0
2017-Oct-09 07:28N 37°57' W 008°52'0 0.0
2017-Oct-09 06:58N 37°57' W 008°52'0 0.0
2017-Oct-09 06:30N 37°57' W 008°52'0 0.0
2017-Oct-08 18:37N 37°57' W 008°52'0 0.0
2017-Oct-08 18:28N 37°57' W 008°52'0 0.0
2017-Oct-08 17:58N 37°57' W 008°52'0 0.0
2017-Oct-08 17:28N 37°57' W 008°52'0 0.0
2017-Oct-08 16:58N 37°57' W 008°52'0 0.0
2017-Oct-07 18:09N 37°57' W 008°52'0 0.0
2017-Oct-07 18:00N 37°57' W 008°52'0 0.0
2017-Oct-07 17:30N 37°57' W 008°52'0 0.0
2017-Oct-07 17:00N 37°57' W 008°52'0 0.0
2017-Oct-07 16:30N 37°57' W 008°52'0 0.0
2017-Oct-07 16:00N 37°57' W 008°52'0 0.0
2017-Oct-07 15:30N 37°57' W 008°52'0 0.0
2017-Oct-07 15:00N 37°57' W 008°52'0 0.0
2017-Oct-07 14:27N 37°57' W 008°52'0 0.0
2017-Oct-07 14:00N 37°57' W 008°52'0 0.0
2017-Oct-07 13:30N 37°57' W 008°52'0 0.0
2017-Oct-07 13:00N 37°57' W 008°52'0 0.0
2017-Oct-07 12:30N 37°57' W 008°52'0 0.0
2017-Oct-07 12:00N 37°57' W 008°52'0 0.0
2017-Oct-07 11:30N 37°57' W 008°52'0 0.0
2017-Oct-06 15:13N 37°57' W 008°52'0 0.0
2017-Oct-06 14:58N 37°57' W 008°52'0 0.6
2017-Oct-06 14:30N 37°57' W 008°52'2 3.9
2017-Oct-06 14:00N 37°57' W 008°55'3 6.4
2017-Oct-06 13:30N 37°60' W 008°57'3 6.5
2017-Oct-06 13:00N 38°03' W 008°59'3 6.7
2017-Oct-06 12:31N 38°06' W 009°01'4 7.2
2017-Oct-06 12:01N 38°09' W 009°04'3 6.7
2017-Oct-06 11:30N 38°12' W 009°06'3 6.8
2017-Oct-06 11:00N 38°14' W 009°08'3 5.9
2017-Oct-06 10:30N 38°17' W 009°10'3 6.6
2017-Oct-06 10:01N 38°20' W 009°12'3 6.6
2017-Oct-06 09:31N 38°22' W 009°14'3 6.3
2017-Oct-06 09:01N 38°25' W 009°16'3 6.2
2017-Oct-06 08:31N 38°28' W 009°17'3 6.3
2017-Oct-06 08:01N 38°31' W 009°18'3 6.7
2017-Oct-06 07:31N 38°35' W 009°19'3 6.8
2017-Oct-06 07:01N 38°38' W 009°21'3 6.1
2017-Oct-06 06:29N 38°40' W 009°24'2 3.2
2017-Oct-06 05:55N 38°42' W 009°25'0 0.0
2017-Oct-06 05:19N 38°42' W 009°25'0 0.0
2017-Oct-05 17:58N 38°42' W 009°25'0 0.0
2017-Oct-05 17:25N 38°42' W 009°25'0 0.0
2017-Oct-05 16:58N 38°42' W 009°25'0 0.2
2017-Oct-05 15:25N 38°42' W 009°25'0 0.0
2017-Oct-05 14:55N 38°42' W 009°25'0 0.0
2017-Oct-05 14:13N 38°42' W 009°25'0 0.0
2017-Oct-05 13:58N 38°42' W 009°25'0 0.0
2017-Oct-05 13:19N 38°42' W 009°25'0 0.0
2017-Oct-05 12:52N 38°42' W 009°25'0 0.0
2017-Oct-05 12:25N 38°42' W 009°25'0 0.0
2017-Oct-05 11:58N 38°42' W 009°25'0 0.0
2017-Oct-05 11:28N 38°42' W 009°25'0 0.0
2017-Oct-05 10:55N 38°42' W 009°25'  

Dump ship's entire track history